Tiempo atmosférico en la estación meteorológica de Alcázar Del Rey, Cuenca (875 m.)



Fecha
DESCASC
Temp. máxima en grados centígrados (hora)
DESCASC
Temp. mínima en grados centígrados (hora)
DESCASC
Temp. media en grados centígrados
DESCASC
Racha de viento máxima en m/sg (hora)
DESCASC
Velocidad máxima media en intervalos de 10 minutos(hora)
DESCASC
Precipitaciones diarias en mm
DESCASC
Precipitaciones de 00:00 a 06:00 en mm
DESCASC
Precipitaciones de 06:00 a 12:00 en mm
DESCASC
Precipitaciones de 12:00 a 18:00 en mm
DESCASC
Precipitaciones de 18:00 a 24:00 en mm
DESCASC
19-04-2018 23.3 (15:50) 8 (07:30) 15.6 12.5 (20:10) 8.33 (20:00) 0 0 0 0 0
18-04-2018 24.5 (16:50) 7.8 (07:30) 16.2 9.17 (18:00) 5.28 (19:50) 0 0 0 0 0
17-04-2018 22 (17:00) 3 (08:00) 12.5 5.56 (17:20) 2.5 (18:00) 0 0 0 0 0
16-04-2018 15.3 (19:20) 5.9 (05:50) 10.6 11.94 (02:00) 5.56 (01:50) 4.2 4.2 0 0 0
15-04-2018 16.2 (15:40) 5.5 (00:00) 10.9 8.06 (17:00) 4.17 (13:10) 0 0 0 0 0
14-04-2018 15.9 (18:10) 1 (00:00) 8.4 7.5 (18:30) 3.89 (18:30) 0 0 0 0 0
13-04-2018 12.5 (19:40) 3.2 (00:00) 7.9 7.22 (00:40) 3.89 (01:20) 0.6 0.6 0 0 0
12-04-2018 9.9 (15:40) 3.4 (00:00) 6.6 9.17 (00:10) 5 (18:30) 3 0 0 0 3
11-04-2018 7 (18:50) 1.3 (00:00) 4.1 15.56 (16:10) 9.17 (19:50) 10 1 4 4.6 0.4
10-04-2018 5.7 (17:10) 1.7 (00:00) 3.7 15.28 (14:20) 8.61 (14:20) 13.6 0.4 1 10.2 2
09-04-2018 7.6 (00:00) 2.7 (00:00) 5.1 11.39 (14:20) 6.39 (14:20) 8.2 0.6 0 6.6 1
08-04-2018 12.4 (15:50) 4.4 (00:00) 8.4 9.72 (17:10) 5.28 (17:50) 0 0 0 0 0
07-04-2018 10 (00:00) 5.6 (00:00) 7.8 9.72 (00:50) 6.39 (11:30) 5 3.6 0.2 0.8 0.4
06-04-2018 19.6 (15:00) 8.1 (00:00) 13.9 12.78 (18:40) 7.78 (18:30) 2.6 0 0 0 2.6
05-04-2018 20.5 (16:30) 1.4 (00:00) 10.9 8.61 (23:50) 5.28 (23:59) 0 0 0 0 0
04-04-2018 13.4 (18:00) 5.7 (00:00) 9.5 10.56 (00:10) 7.22 (00:10) 3.4 3 0.4 0 0
03-04-2018 15.8 (16:50) 7.9 (00:00) 11.9 13.61 (18:40) 7.5 (18:40) 0.8 0 0 0 0.8
02-04-2018 18.7 (18:30) 6.2 (00:00) 12.5 10.83 (02:50) 6.94 (02:30) 0 0 0 0 0
01-04-2018 17.9 (17:00) 0.8 (00:00) 9.3 8.61 (19:10) 5 (17:20) 0 0 0 0 0
31-03-2018 11.8 (17:30) 1.8 (00:00) 6.8 14.17 (00:50) 6.94 (00:40) 0.2 0.2 0 0 0
30-03-2018 9.7 (18:00) 3.4 (00:00) 6.5 13.89 (23:20) 6.94 (23:20) 1 0 0.6 0 0.4
29-03-2018 14.9 (17:30) 6.6 (00:00) 10.7 8.89 (17:00) 4.44 (13:10) 0 0 0 0 0
28-03-2018 20 (15:30) 2.3 (00:00) 11.1 13.06 (20:10) 4.44 (15:40) 0 0 0 0 0
27-03-2018 18.3 (18:40) 2.6 (00:00) 10.4 8.89 (14:40) 4.44 (13:50) 0 0 0 0 0
26-03-2018 13.7 (18:00) 0.2 (00:00) 6.9 11.94 (14:40) 5.83 (15:40) 0 0 0 0 0
25-03-2018 10.4 (16:00) 1.6 (00:00) 6 10 (20:00) 5 (00:20) 0 0 0 0 0
24-03-2018 8.3 (16:50) 0.9 (00:00) 4.6 19.17 (16:20) 11.39 (16:20) 4.8 4.8 0 0 0
23-03-2018 12 (15:00) -1.9 (-00:0) 5.1 11.11 (22:30) 6.11 (22:20) 3.8 0 0 1.4 2.4

Gráficas

Temp. máximas Temp. mínimas Temp. medias Precipitaciones Rachas de viento máximas Velocidades máximas media en intervalos de 10 minutos

Datos horarios

Fecha y hora oficial Temperatura (ºC) Velocidad del viento (km/h) Dirección del viento Racha (km/h) Dirección de racha Precipitación (mm) Presión (hPa) Tendencia (hPa) Humedad (%)
2018-04-21 23:00:00 13.8 12 Sudeste 23 Sudeste 0 -- -- 60
2018-04-21 22:00:00 14.6 10 Sudeste 19 Sudeste 0 -- -- 59
2018-04-21 21:00:00 16 10 Sudeste 28 Sudeste 0 -- -- 57
2018-04-21 20:00:00 17.7 15 Sudeste 33 Sudeste 0 -- -- 53
2018-04-21 19:00:00 18.4 23 Sur 39 Sudeste 0 -- -- 49
2018-04-21 18:00:00 19.9 21 Sur 40 Sudeste 0 -- -- 46
2018-04-21 17:00:00 19.9 22 Sudeste 43 Sudeste 0 -- -- 44
2018-04-21 16:00:00 18.9 25 Sudeste 44 Sudeste 0 -- -- 47
2018-04-21 15:00:00 17.8 21 Sudeste 39 Sudeste 0 -- -- 48
2018-04-21 14:00:00 16.2 19 Sudeste 34 Sudeste 0 -- -- 55
2018-04-21 13:00:00 15 18 Sudeste 35 Sudeste 0 -- -- 62
2018-04-21 12:00:00 14.5 16 Sudeste 32 Sudeste 0 -- -- 67
2018-04-21 11:00:00 12.4 15 Sudeste 32 Sudeste 0 -- -- 76
2018-04-21 10:00:00 11.3 12 Sudeste 28 Sudeste 0 -- -- 81
2018-04-21 09:00:00 10.4 17 Sudeste 28 Sudeste 0 -- -- 81
2018-04-21 08:00:00 9.4 11 Sudeste 27 Este 0 -- -- 84
2018-04-21 07:00:00 9 9 Este 16 Este 0 -- -- 85
2018-04-21 06:00:00 8.9 6 Norte 13 Norte 0 -- -- 84
2018-04-21 05:00:00 9.6 5 Sur 19 Este 0 -- -- 82
2018-04-21 04:00:00 9.8 13 Sudeste 25 Sudeste 0 -- -- 83
2018-04-21 03:00:00 9.2 9 Sudeste 17 Este 0 -- -- 84
2018-04-21 02:00:00 9.5 4 Norte 21 Sur 0 -- -- 80
2018-04-21 01:00:00 10.4 13 Sudeste 30 Sudeste 0 -- -- 77
2018-04-21 00:00:00 11.2 14 Sudeste 29 Sudeste 0 -- -- 70
2018-04-20 23:00:00 12.2 17 Sudeste 29 Sudeste 0 -- -- 67
2018-04-20 22:00:00 13.2 9 Sudeste 29 Sudeste 0 -- -- 63
2018-04-20 21:00:00 14.7 17 Sudeste 37 Sur 0 -- -- 56
2018-04-20 20:00:00 17 23 Sudeste 40 Sudeste 0 -- -- 50
2018-04-20 19:00:00 19.3 26 Sudeste 43 Sudeste 0 -- -- 44
2018-04-20 18:00:00 20.2 26 Sudeste 44 Sur 0 -- -- 43
2018-04-20 17:00:00 20.7 26 Sudeste 45 Sudeste 0 -- -- 43
2018-04-20 16:00:00 20.5 23 Sudeste 42 Sudeste 0 -- -- 41
2018-04-20 15:00:00 19.9 22 Sudeste 46 Sudeste 0 -- -- 46
2018-04-20 14:00:00 18.9 26 Sudeste 42 Sudeste 0 -- -- 49
2018-04-20 13:00:00 17.8 17 Sudeste 38 Sudeste 0 -- -- 53
2018-04-20 12:00:00 15.9 21 Sudeste 37 Sudeste 0 -- -- 56
2018-04-20 11:00:00 14.5 20 Sudeste 34 Sudeste 0 -- -- 60
2018-04-20 10:00:00 12.8 15 Este 34 Nordeste 0 -- -- 71
2018-04-20 09:00:00 10.2 9 Este 17 Este 0 -- -- 83
2018-04-20 08:00:00 9.2 13 Este 24 Este 0 -- -- 85
2018-04-20 07:00:00 9.5 5 Este 14 Este 0 -- -- 85
2018-04-20 06:00:00 9.1 6 Este 21 Este 0 -- -- 84
2018-04-20 05:00:00 9.3 9 Este 15 Sudeste 0 -- -- 79
2018-04-20 04:00:00 9.4 6 Sudeste 13 Sudeste 0 -- -- 81
2018-04-20 03:00:00 9.7 4 Este 11 Este 0 -- -- 76
2018-04-20 02:00:00 10.8 5 Este 24 Sur 0 -- -- 74
2018-04-20 01:00:00 11.8 16 Sudeste 31 Sudeste 0 -- -- 71
2018-04-20 00:00:00 12.9 18 Sudeste 36 Sudeste 0 -- -- 69
2018-04-19 23:00:00 13.5 21 Sudeste 38 Sudeste 0 -- -- 65
2018-04-19 22:00:00 14.4 22 Sudeste 37 Sur 0 -- -- 60
2018-04-19 21:00:00 15.8 24 Sur 45 Sur 0 -- -- 54
2018-04-19 20:00:00 18.1 30 Sur 44 Sur 0 -- -- 47
2018-04-19 19:00:00 20.3 26 Sur 41 Sudeste 0 -- -- 43
2018-04-19 18:00:00 20.9 20 Sur 36 Sudeste 0 -- -- 41
2018-04-19 17:00:00 22.9 15 Sur 30 Sudeste 0 -- -- 36
2018-04-19 16:00:00 23.3 12 Sur 25 Sur 0 -- -- 37
2018-04-19 15:00:00 22.9 12 Sudeste 27 Sudeste 0 -- -- 35
2018-04-19 14:00:00 21.6 12 Sudeste 24 Sudeste 0 -- -- 36
2018-04-19 13:00:00 19.9 13 Sudeste 24 Sudeste 0 -- -- 41
2018-04-19 12:00:00 18.1 11 Sudeste 27 Sudeste 0 -- -- 46
2018-04-19 11:00:00 16.4 14 Sudeste 25 Sudeste 0 -- -- 55
2018-04-19 10:00:00 14.3 4 Sudeste 14 Nordeste 0 -- -- 61
2018-04-19 09:00:00 10.8 9 Nordeste 17 Nordeste 0 -- -- 69
2018-04-19 08:00:00 8.7 7 Nordeste 12 Este 0 -- -- 74
2018-04-19 07:00:00 8.3 5 Norte 8 Norte 0 -- -- 75
2018-04-19 06:00:00 8.5 3 Este 12 Nordeste 0 -- -- 74
2018-04-19 05:00:00 8.6 5 Este 13 Sudeste 0 -- -- 74
2018-04-19 04:00:00 9.1 9 Este 15 Este 0 -- -- 73
2018-04-19 03:00:00 10 5 Este 13 Este 0 -- -- 69
2018-04-19 02:00:00 10.6 4 Nordeste 8 Norte 0 -- -- 65
2018-04-19 01:00:00 12.5 0 Calma 24 Sudeste 0 -- -- 58
2018-04-19 00:00:00 13.5 16 Sudeste 27 Sudeste 0 -- -- 53
2018-04-18 23:00:00 14.4 15 Sudeste 26 Sudeste 0 -- -- 51
2018-04-18 22:00:00 16.2 12 Sudeste 24 Sudeste 0 -- -- 45
2018-04-18 21:00:00 18 12 Sudeste 27 Sur 0 -- -- 41
2018-04-18 20:00:00 21.5 17 Sur 32 Sudeste 0 -- -- 33
2018-04-18 19:00:00 23.5 18 Sur 32 Sur 0 -- -- 30
2018-04-18 18:00:00 24.4 14 Sur 33 Sur 0 -- -- 29
2018-04-18 17:00:00 24.5 14 Sur 30 Sudeste 0 -- -- 28
2018-04-18 16:00:00 24 16 Sur 32 Sur 0 -- -- 32
2018-04-18 15:00:00 23.5 15 Sudeste 27 Sur 0 -- -- 35
2018-04-18 14:00:00 22 14 Sudeste 28 Sur 0 -- -- 39
2018-04-18 13:00:00 20.3 15 Sudeste 27 Sudeste 0 -- -- 46
2018-04-18 12:00:00 18.2 15 Sudeste 31 Este 0 -- -- 46
2018-04-18 11:00:00 16.5 14 Sudeste 24 Sudeste 0 -- -- 56
2018-04-18 10:00:00 13.8 6 Este 14 Sudeste 0 -- -- 64
2018-04-18 09:00:00 10.1 8 Nordeste 12 Nordeste 0 -- -- 79
2018-04-18 08:00:00 8 6 Este 10 Este 0 -- -- 82
2018-04-18 07:00:00 8.1 5 Este 11 Este 0 -- -- 82
2018-04-18 06:00:00 8.4 5 Sudeste 10 Sudeste 0 -- -- 81
2018-04-18 05:00:00 8.6 0 Calma 11 Sur 0 -- -- 78
2018-04-18 04:00:00 8.7 4 Sudeste 13 Sudeste 0 -- -- 74
2018-04-18 03:00:00 8.9 0 Calma 8 Sur 0 -- -- 72
2018-04-18 02:00:00 9.7 2 Este 8 Este 0 -- -- 69
2018-04-18 01:00:00 10.9 0 Calma 5 Sur 0 -- -- 64
2018-04-18 00:00:00 12.3 3 Sur 4 Sur 0 -- -- 60
2018-04-17 23:00:00 14 0 Calma -- -- 0 -- -- 57
2018-04-17 22:00:00 15.9 0 Calma 3 Noroeste 0 -- -- 50
2018-04-17 21:00:00 18.3 0 Calma 8 Sudoeste 0 -- -- 40
2018-04-17 20:00:00 20.5 5 Oeste 13 Noroeste 0 -- -- 33
2018-04-17 19:00:00 21.3 5 Noroeste 15 Noroeste 0 -- -- 33
2018-04-17 18:00:00 21.1 9 Noroeste 20 Noroeste 0 -- -- 32
2018-04-17 17:00:00 22 5 Oeste 17 Noroeste 0 -- -- 35
2018-04-17 16:00:00 20.5 5 Noroeste 13 Oeste 0 -- -- 39
2018-04-17 15:00:00 19.6 5 Sur 14 Noroeste 0 -- -- 43
2018-04-17 14:00:00 18.1 5 Norte 13 Oeste 0 -- -- 47
2018-04-17 13:00:00 16.4 5 Nordeste 11 Nordeste 0 -- -- 57
2018-04-17 12:00:00 14.1 3 Norte 8 Nordeste 0 -- -- 64
2018-04-17 11:00:00 11.5 4 Nordeste 10 Nordeste 0 -- -- 76
2018-04-17 10:00:00 8.5 6 Nordeste 10 Nordeste 0 -- -- 87
2018-04-17 09:00:00 4.8 3 Norte 5 Norte 0 -- -- 96
2018-04-17 08:00:00 3 0 Calma 3 Este 0 -- -- 92
2018-04-17 07:00:00 3.7 0 Calma 4 Nordeste 0 -- -- 91
2018-04-17 06:00:00 4.3 0 Calma 4 Sudeste 0 -- -- 89
2018-04-17 05:00:00 5.2 0 Calma 2 Sudeste 0 -- -- 88
2018-04-17 04:00:00 5.6 0 Calma 6 Sudoeste 0 -- -- 87
2018-04-17 03:00:00 6.4 2 Sur 5 Sudoeste 0 -- -- 84
2018-04-17 02:00:00 7.3 0 Calma 4 Sur 0 -- -- 83
2018-04-17 01:00:00 8.2 0 Calma 5 Oeste 0 -- -- 80
2018-04-17 00:00:00 9.2 0 Calma 8 Noroeste 0 -- -- 76
2018-04-16 23:00:00 9.7 0 Calma 6 Oeste 0 -- -- 74
2018-04-16 22:00:00 10.7 2 Noroeste 9 Noroeste 0 -- -- 69
2018-04-16 21:00:00 12.4 3 Oeste 14 Oeste 0 -- -- 62
2018-04-16 20:00:00 14.4 9 Noroeste 19 Noroeste 0 -- -- 55
2018-04-16 19:00:00 15 8 Noroeste 26 Noroeste 0 -- -- 50
2018-04-16 18:00:00 14.8 15 Noroeste 33 Noroeste 0 -- -- 52
2018-04-16 17:00:00 14.5 14 Noroeste 31 Noroeste 0 -- -- 51
2018-04-16 16:00:00 13.5 14 Noroeste 27 Noroeste 0 -- -- 55
2018-04-16 15:00:00 12.4 13 Noroeste 28 Noroeste 0 -- -- 60
2018-04-16 14:00:00 11.2 15 Noroeste 34 Noroeste 0 -- -- 66
2018-04-16 13:00:00 11.1 19 Noroeste 36 Noroeste 0 -- -- 64
2018-04-16 12:00:00 9 12 Noroeste 26 Noroeste 0 -- -- 78
2018-04-16 11:00:00 7.4 8 Noroeste 22 Noroeste 0 -- -- 87
2018-04-16 10:00:00 6.4 11 Noroeste 24 Noroeste 0 -- -- 94
2018-04-16 09:00:00 6.1 13 Noroeste 30 Noroeste 0 -- -- 95
2018-04-16 08:00:00 6.1 13 Noroeste 23 Noroeste 0 -- -- 95
2018-04-16 07:00:00 6 8 Noroeste 22 Noroeste 0 -- -- 95
2018-04-16 06:00:00 5.9 8 Oeste 28 Noroeste 0 -- -- 93
2018-04-16 05:00:00 6.4 12 Noroeste 27 Oeste 0.6 -- -- 94
2018-04-16 04:00:00 7.2 8 Sudoeste 24 Noroeste 0.2 -- -- 94
2018-04-16 03:00:00 7.4 18 Noroeste 41 Oeste 2.2 -- -- 92
2018-04-16 02:00:00 9 18 Sudoeste 43 Oeste 1.2 -- -- 89
2018-04-16 01:00:00 10.8 15 Sur 33 Sur 0 -- -- 90
2018-04-16 00:00:00 11.4 12 Sudoeste 22 Sudoeste 0 -- -- 85
2018-04-15 23:00:00 11.8 10 Sudoeste 22 Sudoeste 0 -- -- 82
2018-04-15 22:00:00 12.5 10 Sudoeste 21 Sudoeste 0 -- -- 78
2018-04-15 21:00:00 12.8 10 Sudoeste 23 Sudoeste 0 -- -- 79
2018-04-15 20:00:00 13.5 9 Sudoeste 24 Noroeste 0 -- -- 76
2018-04-15 19:00:00 14.3 9 Sudoeste 21 Sudoeste 0 -- -- 76
2018-04-15 18:00:00 15.1 9 Noroeste 27 Noroeste 0 -- -- 66
2018-04-15 17:00:00 15.5 12 Noroeste 29 Oeste 0 -- -- 65
2018-04-15 16:00:00 16 10 Oeste 23 Oeste 0 -- -- 59
2018-04-15 15:00:00 15.6 13 Sudoeste 24 Sudoeste 0 -- -- 59
2018-04-15 14:00:00 14.8 12 Oeste 28 Oeste 0 -- -- 56
2018-04-15 13:00:00 13.1 11 Oeste 27 Oeste 0 -- -- 64
2018-04-15 12:00:00 11.8 8 Oeste 22 Oeste 0 -- -- 70
2018-04-15 11:00:00 10.1 6 Sudoeste 19 Oeste 0 -- -- 83
2018-04-15 10:00:00 8.5 4 Oeste 13 Noroeste 0 -- -- 88
2018-04-15 09:00:00 7 2 Sudoeste 7 Sur 0 -- -- 93
2018-04-15 08:00:00 5.5 0 Calma 3 Sur 0 -- -- 93
2018-04-15 07:00:00 5.6 0 Calma 6 Oeste 0 -- -- 91
2018-04-15 06:00:00 6.3 0 Calma 10 Noroeste 0 -- -- 91
2018-04-15 05:00:00 6.1 2 Noroeste 6 Noroeste 0 -- -- 91
2018-04-15 04:00:00 6.2 0 Calma 4 Noroeste 0 -- -- 87
2018-04-15 03:00:00 6 0 Calma 3 Sur 0 -- -- 83
2018-04-15 02:00:00 7 2 Noroeste 6 Noroeste 0 -- -- 79
2018-04-15 01:00:00 7 0 Calma 3 Sudoeste 0 -- -- 78
2018-04-15 00:00:00 7.9 0 Calma 2 Oeste 0 -- -- 76
2018-04-14 23:00:00 9.1 0 Calma 5 Oeste 0 -- -- 70
2018-04-14 22:00:00 10.6 0 Calma 5 Noroeste 0 -- -- 65
2018-04-14 21:00:00 12.4 0 Calma 14 Noroeste 0 -- -- 58
2018-04-14 20:00:00 14.1 10 Noroeste 23 Noroeste 0 -- -- 51
2018-04-14 19:00:00 15.2 13 Noroeste 27 Noroeste 0 -- -- 45
2018-04-14 18:00:00 15.8 9 Noroeste 24 Noroeste 0 -- -- 48
2018-04-14 17:00:00 14.6 11 Noroeste 24 Norte 0 -- -- 50
2018-04-14 16:00:00 14 8 Noroeste 25 Norte 0 -- -- 52
2018-04-14 15:00:00 14.4 5 Norte 22 Oeste 0 -- -- 51
2018-04-14 14:00:00 13.2 9 Norte 17 Nordeste 0 -- -- 52
2018-04-14 13:00:00 12.1 5 Noroeste 18 Nordeste 0 -- -- 61
2018-04-14 12:00:00 11.6 6 Norte 16 Norte 0 -- -- 65
2018-04-14 11:00:00 9.2 4 Nordeste 13 Este 0 -- -- 73
2018-04-14 10:00:00 6.4 7 Este 11 Este 0 -- -- 86
2018-04-14 09:00:00 2.7 8 Nordeste 13 Nordeste 0 -- -- 95
2018-04-14 08:00:00 1.1 0 Calma 5 Norte 0 -- -- 94
2018-04-14 07:00:00 1.5 6 Nordeste 9 Nordeste 0 -- -- 94
2018-04-14 06:00:00 1.5 6 Norte 9 Norte 0 -- -- 93
2018-04-14 05:00:00 2 3 Norte 6 Nordeste 0 -- -- 93
2018-04-14 04:00:00 1.9 2 Norte 5 Norte 0 -- -- 90
2018-04-14 03:00:00 2.5 0 Calma 3 Nordeste 0 -- -- 88
2018-04-14 02:00:00 3.4 0 Calma 2 Sur 0 -- -- 88
2018-04-14 01:00:00 4.1 0 Calma 4 Nordeste 0 -- -- 84
2018-04-14 00:00:00 5 0 Calma 5 Noroeste 0 -- -- 83
2018-04-13 23:00:00 6.3 0 Calma 3 Este 0 -- -- 79
2018-04-13 22:00:00 7.9 2 Nordeste 4 Noroeste 0 -- -- 73
2018-04-13 21:00:00 9.7 0 Calma 9 Oeste 0 -- -- 66
2018-04-13 20:00:00 11.8 5 Oeste 10 Sudoeste 0 -- -- 56
2018-04-13 19:00:00 12.2 3 Sur 12 Sudoeste 0 -- -- 57
2018-04-13 18:00:00 10.4 7 Sudoeste 15 Sudoeste 0 -- -- 63
2018-04-13 17:00:00 10.9 5 Sur 13 Oeste 0 -- -- 58
2018-04-13 16:00:00 10.7 5 Este 12 Sudeste 0 -- -- 58
2018-04-13 15:00:00 10.6 3 Sudeste 12 Oeste 0 -- -- 58
2018-04-13 14:00:00 10.2 7 Sudoeste 18 Sur 0 -- -- 60
2018-04-13 13:00:00 8.5 8 Sur 17 Sudoeste 0 -- -- 77
2018-04-13 12:00:00 6.8 6 Sudoeste 16 Sur 0 -- -- 80
2018-04-13 11:00:00 6.4 7 Sur 17 Sudoeste 0 -- -- 88
2018-04-13 10:00:00 4.6 6 Sudoeste 16 Sudoeste 0 -- -- 96
2018-04-13 09:00:00 4 6 Sudoeste 13 Sudoeste 0 -- -- 98
2018-04-13 08:00:00 3.2 7 Sur 15 Sudoeste 0 -- -- 97
2018-04-13 07:00:00 3.4 4 Sudoeste 18 Oeste 0 -- -- 94
2018-04-13 06:00:00 4.2 13 Sudoeste 21 Sudoeste 0 -- -- 93
2018-04-13 05:00:00 4.5 11 Sudoeste 21 Sur 0 -- -- 96
2018-04-13 04:00:00 4.6 10 Sudoeste 25 Sudoeste 0 -- -- 96
2018-04-13 03:00:00 4.9 12 Sudoeste 23 Sudoeste 0 -- -- 95
2018-04-13 02:00:00 4.9 11 Sudoeste 26 Sudoeste 0 -- -- 95
2018-04-13 01:00:00 5 13 Sudoeste 26 Sudoeste 0.6 -- -- 95
2018-04-13 00:00:00 5.7 13 Sur 26 Sur 1.4 -- -- 94
2018-04-12 23:00:00 5.7 14 Sudeste 26 Sudeste 1 -- -- 95
2018-04-12 22:00:00 5.8 15 Sudeste 26 Sudeste 0.6 -- -- 94
2018-04-12 21:00:00 5.9 15 Sur 23 Sur 0 -- -- 93
2018-04-12 20:00:00 6.3 7 Sur 26 Sudoeste 0 -- -- 89
2018-04-12 19:00:00 7 15 Sudoeste 31 Sudoeste 0 -- -- 87
2018-04-12 18:00:00 8.9 13 Sudoeste 24 Sur 0 -- -- 74
2018-04-12 17:00:00 8.5 13 Sudoeste 27 Sudoeste 0 -- -- 77
2018-04-12 16:00:00 9.6 10 Sudoeste 22 Oeste 0 -- -- 66
2018-04-12 15:00:00 8.9 5 Sudoeste 25 Sudoeste 0 -- -- 69
2018-04-12 14:00:00 8.8 6 Oeste 21 Oeste 0 -- -- 71
2018-04-12 13:00:00 8.2 9 Oeste 24 Noroeste 0 -- -- 75
2018-04-12 12:00:00 6.1 7 Oeste 18 Oeste 0 -- -- 86
2018-04-12 11:00:00 5.1 7 Oeste 18 Noroeste 0 -- -- 92
2018-04-12 10:00:00 3.9 6 Oeste 18 Sudoeste 0 -- -- 97
2018-04-12 09:00:00 3.5 4 Noroeste 20 Noroeste 0 -- -- 97
2018-04-12 08:00:00 3.5 6 Sudoeste 22 Sudoeste 0 -- -- 97
2018-04-12 07:00:00 3.8 5 Oeste 17 Noroeste 0 -- -- 95
2018-04-12 06:00:00 3.6 3 Norte 19 Noroeste 0 -- -- 93
2018-04-12 05:00:00 4.1 9 Noroeste 31 Noroeste 0 -- -- 90
2018-04-12 04:00:00 4.4 11 Noroeste 31 Noroeste 0 -- -- 88
2018-04-12 03:00:00 4.9 7 Noroeste 25 Oeste 0 -- -- 85
2018-04-12 02:00:00 5.4 10 Noroeste 26 Noroeste 0 -- -- 82
2018-04-12 01:00:00 5.6 12 Noroeste 33 Noroeste 0 -- -- 80
2018-04-12 00:00:00 5.6 11 Noroeste 26 Noroeste 0 -- -- 78
2018-04-11 23:00:00 5.8 12 Noroeste 28 Oeste 0 -- -- 77
2018-04-11 22:00:00 6.5 10 Noroeste 38 Oeste 0 -- -- 66
2018-04-11 21:00:00 6.8 14 Noroeste 41 Oeste 0.2 -- -- 63
2018-04-11 20:00:00 6.8 23 Noroeste 52 Noroeste 0 -- -- 66
2018-04-11 19:00:00 7 24 Noroeste 43 Noroeste 0.2 -- -- 66
2018-04-11 18:00:00 6.5 24 Noroeste 50 Noroeste 0 -- -- 69
2018-04-11 17:00:00 5.9 29 Noroeste 56 Noroeste 0.2 -- -- 71
2018-04-11 16:00:00 4.6 30 Noroeste 53 Noroeste 0.4 -- -- 79
2018-04-11 15:00:00 3 26 Noroeste 55 Noroeste 1.2 -- -- 89
2018-04-11 14:00:00 2.6 27 Noroeste 51 Noroeste 1.4 -- -- 88
2018-04-11 13:00:00 2.1 24 Noroeste 44 Noroeste 1.4 -- -- 92
2018-04-11 12:00:00 1.9 26 Noroeste 41 Noroeste 1.2 -- -- 92
2018-04-11 11:00:00 2.4 14 Noroeste 37 Noroeste 0.4 -- -- 94
2018-04-11 10:00:00 1.9 21 Noroeste 36 Noroeste 0.8 -- -- 96
2018-04-11 09:00:00 1.3 15 Noroeste 35 Noroeste 1.2 -- -- 97
2018-04-11 08:00:00 1.8 15 Noroeste 32 Oeste 0 -- -- 98
2018-04-11 07:00:00 1.7 5 Noroeste 24 Oeste 0.4 -- -- 97
2018-04-11 06:00:00 1.8 10 Noroeste 30 Oeste 0.2 -- -- 97
2018-04-11 05:00:00 1.9 11 Noroeste 23 Noroeste 0 -- -- 98
2018-04-11 04:00:00 2.2 9 Noroeste 27 Noroeste 0.2 -- -- 97
2018-04-11 03:00:00 2.4 10 Noroeste 25 Oeste 0 -- -- 96
2018-04-11 02:00:00 2.2 8 Oeste 24 Sudoeste 0.2 -- -- 96
2018-04-11 01:00:00 2.1 6 Oeste 25 Oeste 0.4 -- -- 95
2018-04-11 00:00:00 1.7 7 Oeste 23 Noroeste 0.2 -- -- 97
2018-04-10 23:00:00 2.2 6 Noroeste 17 Oeste 0.4 -- -- 96
2018-04-10 22:00:00 2.8 7 Noroeste 22 Sudoeste 0.2 -- -- 91
2018-04-10 21:00:00 4.4 6 Sudoeste 18 Sudoeste 0.2 -- -- 93
2018-04-10 20:00:00 4.5 8 Sudoeste 17 Sudoeste 0.2 -- -- 94
2018-04-10 19:00:00 4.5 6 Sur 22 Sudoeste 0.8 -- -- 94
2018-04-10 18:00:00 4.3 5 Noroeste 40 Sudoeste 2.4 -- -- 94
2018-04-10 17:00:00 5.6 22 Sudoeste 49 Sur 0.6 -- -- 93
2018-04-10 16:00:00 5 21 Sudoeste 49 Sudoeste 1.6 -- -- 94
2018-04-10 15:00:00 4.2 24 Sudoeste 55 Sudoeste 2 -- -- 93
2018-04-10 14:00:00 4.1 24 Sudoeste 50 Sudoeste 2 -- -- 93
2018-04-10 13:00:00 5 24 Sudoeste 53 Sudoeste 1.6 -- -- 93
2018-04-10 12:00:00 5 22 Sudoeste 42 Sudoeste 0.8 -- -- 93
2018-04-10 11:00:00 4.9 19 Sudoeste 45 Sudoeste 0.2 -- -- 93
2018-04-10 10:00:00 5 20 Sudoeste 39 Sudoeste 0 -- -- 94
2018-04-10 09:00:00 5 17 Sudoeste 34 Sudoeste 0 -- -- 94
2018-04-10 08:00:00 4.8 16 Sudoeste 32 Sudoeste 0 -- -- 96
2018-04-10 07:00:00 4.5 16 Sudoeste 32 Sudoeste 0 -- -- 95
2018-04-10 06:00:00 4.5 14 Sudoeste 25 Sudoeste 0 -- -- 94
2018-04-10 05:00:00 4.4 13 Sudoeste 21 Sudoeste 0 -- -- 96
2018-04-10 04:00:00 4.3 12 Sudoeste 24 Oeste 0 -- -- 96
2018-04-10 03:00:00 4 13 Sudoeste 23 Sudoeste 0.2 -- -- 96
2018-04-10 02:00:00 3.7 12 Sudoeste 24 Sudoeste 0.2 -- -- 95
2018-04-10 01:00:00 3.6 16 Sudoeste 27 Sudoeste 0 -- -- 93
2018-04-10 00:00:00 3.7 14 Sudoeste 23 Sudoeste 0 -- -- 90
2018-04-09 23:00:00 4 9 Sudoeste 28 Sudoeste 0 -- -- 87
2018-04-09 22:00:00 4 6 Oeste 17 Oeste 0.2 -- -- 87
2018-04-09 21:00:00 3.6 6 Oeste 29 Noroeste 0.2 -- -- 89
2018-04-09 20:00:00 3.6 5 Oeste 32 Noroeste 0.4 -- -- 90
2018-04-09 19:00:00 4.8 12 Oeste 39 Sudoeste 0.2 -- -- 82
2018-04-09 18:00:00 5.6 16 Sudoeste 38 Oeste 1.4 -- -- 78
2018-04-09 17:00:00 4.8 16 Oeste 34 Oeste 3 -- -- 87
2018-04-09 16:00:00 2.9 6 Oeste 38 Sudoeste 1.8 -- -- 92
2018-04-09 15:00:00 6 20 Sudoeste 41 Sudoeste 0.4 -- -- 78
2018-04-09 14:00:00 6.7 17 Sudoeste 37 Sudoeste 0 -- -- 76
2018-04-09 13:00:00 5.5 19 Sudoeste 31 Sudoeste 0 -- -- 79
2018-04-09 12:00:00 4.9 13 Sudoeste 28 Sudoeste 0 -- -- 84
2018-04-09 11:00:00 3.7 14 Sudoeste 28 Sudoeste 0 -- -- 87
2018-04-09 10:00:00 3.7 13 Sudoeste 29 Oeste 0 -- -- 88
2018-04-09 09:00:00 3.1 11 Sudoeste 22 Sudoeste 0 -- -- 92
2018-04-09 08:00:00 2.8 7 Sur 24 Sudoeste 0 -- -- 91
2018-04-09 07:00:00 3.6 11 Sudoeste 26 Sudoeste 0 -- -- 89
2018-04-09 06:00:00 4.3 13 Sudoeste 26 Oeste 0 -- -- 91
2018-04-09 05:00:00 4.9 12 Sudoeste 28 Sudoeste 0.4 -- -- 89
2018-04-09 04:00:00 5.5 17 Sudoeste 36 Sudoeste 0.2 -- -- 90
2018-04-09 03:00:00 6.7 10 Sur 25 Sudoeste 0 -- -- 92
2018-04-09 02:00:00 6.9 10 Sudoeste 22 Sudoeste 0 -- -- 85
2018-04-09 01:00:00 7.2 9 Sudoeste 16 Sudoeste 0 -- -- 83
2018-04-09 00:00:00 7.6 5 Sudoeste 21 Sudoeste 0 -- -- 82
2018-04-08 23:00:00 7.7 12 Sudoeste 18 Sudoeste 0 -- -- 80
2018-04-08 22:00:00 7.7 10 Sudoeste 26 Sudoeste 0 -- -- 82
2018-04-08 21:00:00 9.7 2 Oeste 24 Oeste 0 -- -- 69
2018-04-08 20:00:00 11.5 7 Oeste 23 Oeste 0 -- -- 54
2018-04-08 19:00:00 11.5 4 Oeste 30 Noroeste 0 -- -- 60
2018-04-08 18:00:00 11.8 18 Noroeste 35 Noroeste 0 -- -- 60
2018-04-08 17:00:00 12.4 12 Oeste 32 Noroeste 0 -- -- 53
2018-04-08 16:00:00 12.3 12 Oeste 34 Oeste 0 -- -- 58
2018-04-08 15:00:00 10.4 11 Oeste 26 Oeste 0 -- -- 68
2018-04-08 14:00:00 10.3 11 Oeste 27 Noroeste 0 -- -- 71
2018-04-08 13:00:00 9 10 Noroeste 23 Noroeste 0 -- -- 78
2018-04-08 12:00:00 7 11 Noroeste 22 Noroeste 0 -- -- 88
2018-04-08 11:00:00 5.1 9 Noroeste 22 Noroeste 0 -- -- 97
2018-04-08 10:00:00 4.8 7 Noroeste 24 Noroeste 0 -- -- 98
2018-04-08 09:00:00 4.8 9 Noroeste 23 Oeste 0 -- -- 97
2018-04-08 08:00:00 4.8 7 Noroeste 22 Oeste 0 -- -- 96
2018-04-08 07:00:00 4.9 6 Oeste 12 Noroeste 0 -- -- 96
2018-04-08 06:00:00 4.8 3 Noroeste 10 Norte 0 -- -- 96
2018-04-08 05:00:00 4.5 0 Calma 9 Oeste 0 -- -- 95
2018-04-08 04:00:00 4.9 2 Norte 13 Noroeste 0 -- -- 93
2018-04-08 03:00:00 5.4 0 Calma 8 Noroeste 0 -- -- 93
2018-04-08 02:00:00 6 3 Noroeste 7 Noroeste 0 -- -- 93
2018-04-08 01:00:00 5.7 2 Sudoeste 6 Oeste 0 -- -- 94
2018-04-08 00:00:00 5.6 0 Calma 6 Sur 0 -- -- 93
2018-04-07 23:00:00 6.4 2 Sudeste 9 Sur 0 -- -- 94
2018-04-07 22:00:00 6.7 3 Sur 7 Sur 0 -- -- 93
2018-04-07 21:00:00 6.8 3 Sur 6 Sudoeste 0 -- -- 93
2018-04-07 20:00:00 6.6 4 Sudoeste 9 Sudoeste 0 -- -- 92
2018-04-07 19:00:00 6.3 3 Oeste 10 Oeste 0.4 -- -- 93
2018-04-07 18:00:00 5.8 3 Noroeste 21 Noroeste 0.2 -- -- 94
2018-04-07 17:00:00 6 13 Noroeste 27 Noroeste 0.2 -- -- 94
2018-04-07 16:00:00 6.5 10 Noroeste 29 Noroeste 0.2 -- -- 95
2018-04-07 15:00:00 7 12 Noroeste 33 Noroeste 0.2 -- -- 93
2018-04-07 14:00:00 9.4 20 Sur 31 Sudeste 0 -- -- 92
2018-04-07 13:00:00 9.1 19 Sur 31 Sudeste 0 -- -- 90
2018-04-07 12:00:00 8.9 19 Sur 34 Sudeste 0 -- -- 88
2018-04-07 11:00:00 8.5 15 Sudeste 27 Sudeste 0 -- -- 90
2018-04-07 10:00:00 8 15 Sudeste 32 Sudeste 0 -- -- 93
2018-04-07 09:00:00 7.7 10 Sudeste 19 Sudeste 0.2 -- -- 95
2018-04-07 08:00:00 7.9 9 Sur 20 Sudeste 0 -- -- 92
2018-04-07 07:00:00 8.2 8 Sur 18 Sur 0 -- -- 91
2018-04-07 06:00:00 8.3 5 Sudoeste 21 Sudeste 0.2 -- -- 93
2018-04-07 05:00:00 8.6 13 Sudeste 23 Sudeste 0 -- -- 93
2018-04-07 04:00:00 8.7 14 Sudeste 26 Sudeste 0 -- -- 94
2018-04-07 03:00:00 8.8 14 Sudeste 24 Sudeste 0.8 -- -- 94
2018-04-07 02:00:00 8.8 10 Sudeste 33 Sudeste 1.2 -- -- 94
2018-04-07 01:00:00 9 20 Sudeste 35 Sudeste 1.4 -- -- 93
2018-04-07 00:00:00 10 9 Sur 32 Sur 2 -- -- 88
2018-04-06 23:00:00 11.1 11 Sudoeste 41 Sudeste 0.4 -- -- 83
2018-04-06 22:00:00 12.6 24 Sudeste 41 Sur 0 -- -- 74
2018-04-06 21:00:00 13 14 Sudeste 33 Sudeste 0 -- -- 78
2018-04-06 20:00:00 14.8 11 Sudeste 35 Sudeste 0.2 -- -- 72
2018-04-06 19:00:00 16.1 23 Sudeste 46 Sudeste 0 -- -- 62
2018-04-06 18:00:00 16.1 23 Sudeste 38 Sudeste 0 -- -- 68
2018-04-06 17:00:00 17.2 24 Sudeste 44 Sur 0 -- -- 54
2018-04-06 16:00:00 17.9 26 Sudeste 43 Sudeste 0 -- -- 50
2018-04-06 15:00:00 19.6 19 Sudeste 34 Sudeste 0 -- -- 40
2018-04-06 14:00:00 18.7 21 Sur 35 Sudeste 0 -- -- 41
2018-04-06 13:00:00 16 17 Sudeste 38 Sudeste 0 -- -- 45
2018-04-06 12:00:00 14.4 23 Sudeste 38 Sur 0 -- -- 47
2018-04-06 11:00:00 12.4 18 Sudeste 38 Sudeste 0 -- -- 53
2018-04-06 10:00:00 10.9 20 Sudeste 34 Sudeste 0 -- -- 55
2018-04-06 09:00:00 8.9 16 Sudeste 28 Sudeste 0 -- -- 62
2018-04-06 08:00:00 8.1 10 Sur 27 Sudeste 0 -- -- 63
2018-04-06 07:00:00 8.3 13 Sudeste 26 Sudeste 0 -- -- 62
2018-04-06 06:00:00 8.7 9 Sudeste 28 Sudeste 0 -- -- 63
2018-04-06 05:00:00 9.3 18 Sudeste 33 Sudeste 0 -- -- 64
2018-04-06 04:00:00 9.3 14 Sudeste 34 Sudeste 0 -- -- 66
2018-04-06 03:00:00 9.1 19 Sudeste 36 Sudeste 0 -- -- 68
2018-04-06 02:00:00 9.6 20 Sudeste 35 Sudeste 0 -- -- 68
2018-04-06 01:00:00 10.5 19 Sudeste 39 Sudeste 0 -- -- 64
2018-04-06 00:00:00 11.4 19 Sudeste 31 Sudeste 0 -- -- 60
2018-04-05 23:00:00 12.3 11 Sudeste 22 Sudeste 0 -- -- 53
2018-04-05 22:00:00 13 3 Sur 16 Sudeste 0 -- -- 51
2018-04-05 21:00:00 15 7 Sudeste 14 Sudeste 0 -- -- 44
2018-04-05 20:00:00 17.4 5 Sudeste 22 Sur 0 -- -- 37
2018-04-05 19:00:00 19.4 13 Sur 26 Sur 0 -- -- 30
2018-04-05 18:00:00 20.5 11 Sur 21 Sudeste 0 -- -- 31
2018-04-05 17:00:00 20.2 9 Sur 22 Sur 0 -- -- 29
2018-04-05 16:00:00 19.8 11 Sur 21 Sudeste 0 -- -- 36
2018-04-05 15:00:00 18 8 Sudeste 19 Sudeste 0 -- -- 40
2018-04-05 14:00:00 15.9 6 Sur 13 Sur 0 -- -- 46
2018-04-05 13:00:00 13.9 6 Sur 14 Sudoeste 0 -- -- 52
2018-04-05 12:00:00 11.9 6 Sur 13 Sudoeste 0 -- -- 69
2018-04-05 11:00:00 8.6 3 Sudoeste 7 Oeste 0 -- -- 88
2018-04-05 10:00:00 5 0 Calma 4 Sudeste 0 -- -- 98
2018-04-05 09:00:00 1.9 0 Calma 4 Sudeste 0 -- -- 96
2018-04-05 08:00:00 1.5 0 Calma 7 Sudeste 0 -- -- 94
2018-04-05 07:00:00 1.6 2 Nordeste 5 Norte 0 -- -- 91
2018-04-05 06:00:00 3.2 3 Sudeste 9 Sudeste 0 -- -- 93
2018-04-05 05:00:00 3.6 0 Calma 2 Sur 0 -- -- 89
2018-04-05 04:00:00 4.3 0 Calma 2 Sur 0 -- -- 88
2018-04-05 03:00:00 5.3 2 Sudeste 3 Sudeste 0 -- -- 87
2018-04-05 02:00:00 6.4 0 Calma 6 Noroeste 0 -- -- 84
2018-04-05 01:00:00 7.1 0 Calma 4 Noroeste 0 -- -- 85
2018-04-05 00:00:00 7.8 0 Calma 17 Sudoeste 0 -- -- 80
2018-04-04 23:00:00 8.8 5 Sudoeste 13 Oeste 0 -- -- 78
2018-04-04 22:00:00 9.5 5 Oeste 23 Noroeste 0 -- -- 74
2018-04-04 21:00:00 10.3 7 Oeste 31 Norte 0 -- -- 67
2018-04-04 20:00:00 11.7 9 Oeste 32 Oeste 0 -- -- 61
2018-04-04 19:00:00 13 12 Oeste 35 Oeste 0 -- -- 58
2018-04-04 18:00:00 13.4 13 Oeste 35 Oeste 0 -- -- 55
2018-04-04 17:00:00 12.6 10 Oeste 35 Noroeste 0 -- -- 59
2018-04-04 16:00:00 11.1 11 Oeste 29 Oeste 0 -- -- 60
2018-04-04 15:00:00 10.9 12 Oeste 30 Oeste 0 -- -- 64
2018-04-04 14:00:00 10.4 12 Oeste 36 Noroeste 0 -- -- 63
2018-04-04 13:00:00 9.5 12 Oeste 38 Oeste 0 -- -- 69
2018-04-04 12:00:00 8.2 15 Sudoeste 34 Sudoeste 0 -- -- 78
2018-04-04 11:00:00 7.8 17 Oeste 31 Sudoeste 0 -- -- 81
2018-04-04 10:00:00 6.2 14 Sudoeste 29 Sudoeste 0.4 -- -- 91
2018-04-04 09:00:00 6.2 16 Sudoeste 29 Sudoeste 0 -- -- 87
2018-04-04 08:00:00 6 14 Sudoeste 23 Sudoeste 0 -- -- 91
2018-04-04 07:00:00 5.8 6 Sudoeste 17 Oeste 0 -- -- 93
2018-04-04 06:00:00 5.7 5 Oeste 27 Noroeste 1.2 -- -- 91
2018-04-04 05:00:00 5.9 10 Noroeste 27 Oeste 1.6 -- -- 93
2018-04-04 04:00:00 6.1 10 Noroeste 25 Noroeste 0.2 -- -- 91
2018-04-04 03:00:00 6.4 8 Oeste 25 Noroeste 0 -- -- 88
2018-04-04 02:00:00 7.4 9 Oeste 33 Sudoeste 0 -- -- 83
2018-04-04 01:00:00 8.8 14 Sudoeste 38 Oeste 0 -- -- 83
2018-04-04 00:00:00 9.4 22 Sudoeste 39 Sudoeste 0.8 -- -- 79
2018-04-03 23:00:00 11.3 13 Sudoeste 30 Sudoeste 0 -- -- 63
2018-04-03 22:00:00 11.8 10 Sudoeste 33 Sudoeste 0 -- -- 51
2018-04-03 21:00:00 12.9 17 Sudoeste 38 Sudoeste 0 -- -- 49
2018-04-03 20:00:00 14.1 22 Sudoeste 42 Sudoeste 0 -- -- 47
2018-04-03 19:00:00 14.8 26 Sudoeste 49 Sur 0 -- -- 43
2018-04-03 18:00:00 15.3 22 Sudoeste 47 Sudoeste 0 -- -- 42
2018-04-03 17:00:00 15.4 23 Sudoeste 48 Sudoeste 0 -- -- 43
2018-04-03 16:00:00 15.7 23 Sudoeste 44 Sudoeste 0 -- -- 41
2018-04-03 15:00:00 14.7 24 Sudoeste 42 Oeste 0 -- -- 47
2018-04-03 14:00:00 13.4 25 Sudoeste 39 Sudoeste 0 -- -- 50
2018-04-03 13:00:00 11.9 19 Sudoeste 34 Sudoeste 0 -- -- 65
2018-04-03 12:00:00 11.2 15 Sudoeste 27 Sudoeste 0 -- -- 71
2018-04-03 11:00:00 10.4 15 Sudoeste 25 Sudoeste 0 -- -- 78
2018-04-03 10:00:00 10.1 14 Sudoeste 24 Sudoeste 0 -- -- 86
2018-04-03 09:00:00 8.7 13 Sudoeste 25 Sudoeste 0 -- -- 92
2018-04-03 08:00:00 8 8 Sudoeste 19 Sur 0 -- -- 90
2018-04-03 07:00:00 8.5 9 Sudoeste 19 Sur 0 -- -- 88
2018-04-03 06:00:00 8.9 10 Sudoeste 23 Sur 0 -- -- 85
2018-04-03 05:00:00 9.3 11 Sudoeste 19 Sur 0 -- -- 83
2018-04-03 04:00:00 9.1 9 Sudoeste 16 Sudoeste 0 -- -- 84
2018-04-03 03:00:00 8.9 7 Sudoeste 13 Sudoeste 0 -- -- 77
2018-04-03 02:00:00 8.4 5 Sur 9 Sur 0 -- -- 71
2018-04-03 01:00:00 9.8 4 Sur 12 Sur 0 -- -- 65
2018-04-03 00:00:00 11.5 6 Sudoeste 20 Sudoeste 0 -- -- 59
2018-04-02 23:00:00 10.9 4 Sudoeste 13 Oeste 0 -- -- 57
2018-04-02 22:00:00 12.1 9 Sudoeste 18 Sudoeste 0 -- -- 51
2018-04-02 21:00:00 14.9 10 Sudoeste 22 Sudoeste 0 -- -- 42
2018-04-02 20:00:00 16.9 13 Sudoeste 31 Sudoeste 0 -- -- 36
2018-04-02 19:00:00 18.1 14 Sudoeste 35 Sudoeste 0 -- -- 37
2018-04-02 18:00:00 18.1 19 Sudoeste 36 Sudoeste 0 -- -- 36
2018-04-02 17:00:00 18.1 17 Sudoeste 32 Sudoeste 0 -- -- 35
2018-04-02 16:00:00 18 15 Sur 29 Sur 0 -- -- 37
2018-04-02 15:00:00 17.4 15 Sur 30 Sudoeste 0 -- -- 39
2018-04-02 14:00:00 16.7 11 Sudoeste 27 Sur 0 -- -- 40
2018-04-02 13:00:00 15 13 Sur 28 Sudeste 0 -- -- 41
2018-04-02 12:00:00 12.2 13 Sur 24 Sur 0 -- -- 50
2018-04-02 11:00:00 10.3 15 Sudeste 26 Sudeste 0 -- -- 54
2018-04-02 10:00:00 8 14 Sudeste 28 Sudeste 0 -- -- 57
2018-04-02 09:00:00 6.5 15 Sudeste 27 Sudeste 0 -- -- 59
2018-04-02 08:00:00 6.2 16 Sudeste 32 Sudeste 0 -- -- 58
2018-04-02 07:00:00 6.7 21 Sudeste 32 Sudeste 0 -- -- 56
2018-04-02 06:00:00 7.2 17 Sudeste 32 Sudeste 0 -- -- 55
2018-04-02 05:00:00 7.5 19 Sudeste 37 Sudeste 0 -- -- 57
2018-04-02 04:00:00 8 22 Sudeste 36 Sudeste 0 -- -- 57
2018-04-02 03:00:00 8.5 23 Sudeste 39 Sudeste 0 -- -- 60
2018-04-02 02:00:00 9.2 19 Sudeste 36 Sudeste 0 -- -- 60
2018-04-02 01:00:00 10 22 Sudeste 36 Sudeste 0 -- -- 59
2018-04-02 00:00:00 10.7 18 Sudeste 30 Sudeste 0 -- -- 55
2018-04-01 23:00:00 11.5 16 Sudeste 26 Sudeste 0 -- -- 50
2018-04-01 22:00:00 12.6 14 Sudeste 23 Sudeste 0 -- -- 47
2018-04-01 21:00:00 13.4 8 Sudeste 24 Sudeste 0 -- -- 47
2018-04-01 20:00:00 15.3 14 Sudeste 31 Sudeste 0 -- -- 41
2018-04-01 19:00:00 16.7 17 Sudeste 28 Sudeste 0 -- -- 38
2018-04-01 18:00:00 17.6 17 Sudeste 30 Sur 0 -- -- 38
2018-04-01 17:00:00 17.9 16 Sudeste 29 Sudeste 0 -- -- 37
2018-04-01 16:00:00 17.4 15 Sudeste 30 Sudeste 0 -- -- 37
2018-04-01 15:00:00 16.3 13 Sur 25 Sudeste 0 -- -- 36
2018-04-01 14:00:00 14.7 13 Sur 22 Sudeste 0 -- -- 45
2018-04-01 13:00:00 12.8 9 Sudeste 17 Sudeste 0 -- -- 49
2018-04-01 12:00:00 10 10 Sudeste 18 Este 0 -- -- 61
2018-04-01 11:00:00 6.7 3 Sur 8 Este 0 -- -- 76
2018-04-01 10:00:00 3.3 0 Calma 5 Nordeste 0 -- -- 85
2018-04-01 09:00:00 1.5 2 Nordeste 4 Nordeste 0 -- -- 86
2018-04-01 08:00:00 1 0 Calma 5 Sudeste 0 -- -- 86
2018-04-01 07:00:00 1 2 Sudeste 5 Sudeste 0 -- -- 85
2018-04-01 06:00:00 0.8 0 Calma 3 Norte 0 -- -- 82
2018-04-01 05:00:00 1.8 0 Calma 5 Sudeste 0 -- -- 80
2018-04-01 04:00:00 2.7 3 Sur 9 Este 0 -- -- 76
2018-04-01 03:00:00 3.4 3 Sudeste 8 Sur 0 -- -- 76
2018-04-01 02:00:00 4.5 0 Calma 9 Noroeste 0 -- -- 68
2018-04-01 01:00:00 5.6 0 Calma 8 Noroeste 0 -- -- 64
2018-04-01 00:00:00 6.4 3 Noroeste 10 Noroeste 0 -- -- 61
2018-03-31 23:00:00 6.8 2 Sudoeste 15 Noroeste 0 -- -- 60
2018-03-31 22:00:00 7.7 2 Oeste 15 Oeste 0 -- -- 56
2018-03-31 21:00:00 8.8 4 Noroeste 17 Oeste 0 -- -- 50
2018-03-31 20:00:00 10.4 8 Oeste 33 Noroeste 0 -- -- 43
2018-03-31 19:00:00 11.4 10 Noroeste 32 Noroeste 0 -- -- 36
2018-03-31 18:00:00 11.5 19 Noroeste 44 Noroeste 0 -- -- 34
2018-03-31 17:00:00 10.9 20 Noroeste 44 Oeste 0 -- -- 36
2018-03-31 16:00:00 10.6 17 Noroeste 45 Noroeste 0 -- -- 41
2018-03-31 15:00:00 9.8 21 Noroeste 47 Noroeste 0 -- -- 44
2018-03-31 14:00:00 8.9 23 Noroeste 44 Noroeste 0 -- -- 48
2018-03-31 13:00:00 7.1 17 Noroeste 41 Oeste 0 -- -- 60
2018-03-31 12:00:00 5.6 15 Noroeste 34 Noroeste 0 -- -- 76
2018-03-31 11:00:00 4.1 14 Oeste 35 Oeste 0 -- -- 83
2018-03-31 10:00:00 2.7 17 Noroeste 36 Noroeste 0 -- -- 89
2018-03-31 09:00:00 2 12 Noroeste 32 Noroeste 0 -- -- 92
2018-03-31 08:00:00 1.9 13 Noroeste 33 Oeste 0 -- -- 92
2018-03-31 07:00:00 2.1 13 Noroeste 39 Noroeste 0 -- -- 91
2018-03-31 06:00:00 2.3 13 Oeste 44 Noroeste 0 -- -- 91
2018-03-31 05:00:00 2.5 18 Oeste 41 Oeste 0 -- -- 90
2018-03-31 04:00:00 2.9 18 Noroeste 40 Noroeste 0 -- -- 89
2018-03-31 03:00:00 3.3 14 Noroeste 43 Noroeste 0 -- -- 91
2018-03-31 02:00:00 3 13 Noroeste 34 Oeste 0 -- -- 92
2018-03-31 01:00:00 2.5 13 Noroeste 51 Oeste 0.2 -- -- 85
2018-03-31 00:00:00 3.4 17 Sudoeste 50 Oeste 0.4 -- -- 90
2018-03-30 23:00:00 5.4 18 Sudoeste 32 Sudoeste 0 -- -- 77
2018-03-30 22:00:00 5.4 7 Oeste 44 Oeste 0 -- -- 71
2018-03-30 21:00:00 7.2 18 Sudoeste 36 Sudoeste 0 -- -- 52
2018-03-30 20:00:00 8 12 Oeste 36 Oeste 0 -- -- 39
2018-03-30 19:00:00 9.4 12 Oeste 46 Oeste 0 -- -- 36
2018-03-30 18:00:00 9.7 13 Oeste 35 Noroeste 0 -- -- 38
2018-03-30 17:00:00 9.2 13 Oeste 42 Noroeste 0 -- -- 40
2018-03-30 16:00:00 8.8 14 Oeste 32 Noroeste 0 -- -- 44
2018-03-30 15:00:00 9 15 Oeste 36 Oeste 0 -- -- 44
2018-03-30 14:00:00 8.1 14 Noroeste 35 Oeste 0 -- -- 48
2018-03-30 13:00:00 7 14 Oeste 39 Noroeste 0 -- -- 55
2018-03-30 12:00:00 5.8 10 Oeste 32 Oeste 0 -- -- 74
2018-03-30 11:00:00 4.8 9 Oeste 27 Noroeste 0 -- -- 84
2018-03-30 10:00:00 4.6 10 Oeste 29 Oeste 0 -- -- 89
2018-03-30 09:00:00 4.3 14 Sudoeste 28 Oeste 0.4 -- -- 90
2018-03-30 08:00:00 4.7 16 Sudoeste 30 Sudoeste 0.2 -- -- 88
2018-03-30 07:00:00 4.7 21 Sudoeste 33 Sudoeste 0 -- -- 85
2018-03-30 06:00:00 5.1 14 Sudoeste 31 Sudoeste 0 -- -- 78
2018-03-30 05:00:00 5.1 14 Sudoeste 30 Sudoeste 0 -- -- 76
2018-03-30 04:00:00 4.9 13 Sudoeste 26 Sudoeste 0 -- -- 74
2018-03-30 03:00:00 4.5 9 Sudoeste 23 Sudoeste 0 -- -- 75
2018-03-30 02:00:00 5.3 12 Sudoeste 22 Sudoeste 0 -- -- 72
2018-03-30 01:00:00 6.4 12 Sudoeste 24 Oeste 0 -- -- 70
2018-03-30 00:00:00 6.6 10 Sudoeste 26 Oeste 0 -- -- 66
2018-03-29 23:00:00 7.4 8 Sudoeste 26 Oeste 0 -- -- 65
2018-03-29 22:00:00 8.7 12 Sudoeste 29 Sudoeste 0 -- -- 59
2018-03-29 21:00:00 10.6 11 Sudoeste 24 Oeste 0 -- -- 57
2018-03-29 20:00:00 12.7 6 Oeste 24 Oeste 0 -- -- 49
2018-03-29 19:00:00 13.5 10 Oeste 30 Noroeste 0 -- -- 49
2018-03-29 18:00:00 14.2 12 Oeste 31 Oeste 0 -- -- 46
2018-03-29 17:00:00 14.7 10 Oeste 32 Oeste 0 -- -- 40
2018-03-29 16:00:00 13.8 13 Sudoeste 30 Noroeste 0 -- -- 48
2018-03-29 15:00:00 13.2 12 Oeste 27 Oeste 0 -- -- 52
2018-03-29 14:00:00 12.8 13 Oeste 27 Oeste 0 -- -- 54
2018-03-29 13:00:00 10.9 10 Oeste 26 Oeste 0 -- -- 59
2018-03-29 12:00:00 9.9 9 Oeste 27 Sudoeste 0 -- -- 72
2018-03-29 11:00:00 8.9 8 Oeste 25 Oeste 0 -- -- 76
2018-03-29 10:00:00 7.8 8 Noroeste 17 Noroeste 0 -- -- 86
2018-03-29 09:00:00 6.9 3 Oeste 13 Noroeste 0 -- -- 92
2018-03-29 08:00:00 7 0 Calma 17 Oeste 0 -- -- 90
2018-03-29 07:00:00 7.3 0 Calma 5 Sudoeste 0 -- -- 90
2018-03-29 06:00:00 7.5 0 Calma 4 Sudeste 0 -- -- 84
2018-03-29 05:00:00 8.8 0 Calma 5 Oeste 0 -- -- 80
2018-03-29 04:00:00 9.4 0 Calma 11 Oeste 0 -- -- 79
2018-03-29 03:00:00 9.7 3 Oeste 12 Noroeste 0 -- -- 76
2018-03-29 02:00:00 10.1 3 Noroeste 14 Oeste 0 -- -- 71
2018-03-29 01:00:00 11.2 7 Noroeste 23 Oeste 0 -- -- 60
2018-03-29 00:00:00 11.6 4 Oeste 17 Noroeste 0 -- -- 47
2018-03-28 23:00:00 12.6 4 Noroeste 15 Noroeste 0 -- -- 40
2018-03-28 22:00:00 13.7 6 Noroeste 19 Oeste 0 -- -- 39
2018-03-28 21:00:00 15 8 Noroeste 47 Noroeste 0 -- -- 33
2018-03-28 20:00:00 17 11 Noroeste 36 Oeste 0 -- -- 27
2018-03-28 19:00:00 19 11 Oeste 35 Oeste 0 -- -- 23
2018-03-28 18:00:00 19.7 14 Oeste 34 Oeste 0 -- -- 23
2018-03-28 17:00:00 20 11 Oeste 30 Oeste 0 -- -- 24
2018-03-28 16:00:00 19.8 12 Noroeste 30 Sudoeste 0 -- -- 28
2018-03-28 15:00:00 19 14 Oeste 28 Sudoeste 0 -- -- 36
2018-03-28 14:00:00 17.9 10 Oeste 26 Noroeste 0 -- -- 33
2018-03-28 13:00:00 16.5 8 Oeste 21 Noroeste 0 -- -- 31
2018-03-28 12:00:00 14.5 6 Noroeste 14 Oeste 0 -- -- 42
2018-03-28 11:00:00 11.6 3 Sudoeste 8 Sudoeste 0 -- -- 60
2018-03-28 10:00:00 7.3 2 Sur 7 Sudeste 0 -- -- 81
2018-03-28 09:00:00 2.9 0 Calma 4 Sur 0 -- -- 90
2018-03-28 08:00:00 2.4 2 Sur 5 Sudoeste 0 -- -- 86
2018-03-28 07:00:00 3.3 0 Calma 4 Norte 0 -- -- 82
2018-03-28 06:00:00 3.8 0 Calma 3 Este 0 -- -- 83
2018-03-28 05:00:00 4.7 0 Calma 4 Sudoeste 0 -- -- 80
2018-03-28 04:00:00 5.2 2 Sudeste 5 Sur 0 -- -- 78
2018-03-28 03:00:00 5.6 0 Calma 5 Noroeste 0 -- -- 77
2018-03-28 02:00:00 6.8 0 Calma 4 Norte 0 -- -- 74
2018-03-28 01:00:00 8 0 Calma 4 Sur 0 -- -- 68
2018-03-28 00:00:00 9.4 2 Sur 6 Nordeste 0 -- -- 64
2018-03-27 23:00:00 11 3 Norte 5 Norte 0 -- -- 57
2018-03-27 22:00:00 12.6 0 Calma 5 Norte 0 -- -- 54
2018-03-27 21:00:00 15 2 Norte 7 Noroeste 0 -- -- 50
2018-03-27 20:00:00 17.3 2 Oeste 14 Oeste 0 -- -- 45
2018-03-27 19:00:00 18.1 8 Noroeste 24 Noroeste 0 -- -- 40
2018-03-27 18:00:00 17.8 12 Noroeste 27 Noroeste 0 -- -- 40
2018-03-27 17:00:00 17.7 13 Noroeste 27 Noroeste 0 -- -- 42
2018-03-27 16:00:00 16.7 11 Noroeste 28 Noroeste 0 -- -- 46
2018-03-27 15:00:00 15.5 12 Noroeste 32 Noroeste 0 -- -- 50
2018-03-27 14:00:00 14.4 13 Noroeste 30 Noroeste 0 -- -- 52
2018-03-27 13:00:00 13.7 12 Noroeste 22 Noroeste 0 -- -- 53
2018-03-27 12:00:00 12.1 8 Oeste 16 Sudoeste 0 -- -- 58
2018-03-27 11:00:00 9.5 3 Oeste 12 Oeste 0 -- -- 63
2018-03-27 10:00:00 7.2 4 Oeste 9 Noroeste 0 -- -- 68
2018-03-27 09:00:00 4.7 0 Calma 6 Noroeste 0 -- -- 74
2018-03-27 08:00:00 5.1 4 Noroeste 11 Oeste 0 -- -- 70
2018-03-27 07:00:00 4.1 2 Noroeste 9 Este 0 -- -- 73
2018-03-27 06:00:00 2.6 0 Calma 7 Este 0 -- -- 77
2018-03-27 05:00:00 3.3 2 Nordeste 5 Nordeste 0 -- -- 73
2018-03-27 04:00:00 4.5 0 Calma 3 Norte 0 -- -- 69
2018-03-27 03:00:00 5.7 2 Oeste 9 Oeste 0 -- -- 64
2018-03-27 02:00:00 5.9 0 Calma 10 Oeste 0 -- -- 62
2018-03-27 01:00:00 6.2 4 Norte 17 Nordeste 0 -- -- 61
2018-03-27 00:00:00 6.4 7 Nordeste 11 Norte 0 -- -- 62
2018-03-26 23:00:00 6.3 6 Norte 14 Norte 0 -- -- 62
2018-03-26 22:00:00 7.4 9 Norte 16 Norte 0 -- -- 56
2018-03-26 21:00:00 9.3 13 Norte 21 Norte 0 -- -- 49
2018-03-26 20:00:00 11.3 11 Norte 28 Norte 0 -- -- 41
2018-03-26 19:00:00 13.3 15 Norte 33 Noroeste 0 -- -- 33
2018-03-26 18:00:00 13.7 13 Noroeste 36 Noroeste 0 -- -- 36
2018-03-26 17:00:00 13.3 16 Noroeste 36 Noroeste 0 -- -- 38
2018-03-26 16:00:00 13.2 21 Norte 39 Norte 0 -- -- 39
2018-03-26 15:00:00 12.4 15 Norte 43 Noroeste 0 -- -- 41
2018-03-26 14:00:00 11.3 14 Norte 33 Noroeste 0 -- -- 49
2018-03-26 13:00:00 9.5 13 Norte 33 Noroeste 0 -- -- 57
2018-03-26 12:00:00 8.5 14 Noroeste 31 Noroeste 0 -- -- 60
2018-03-26 11:00:00 6.5 10 Noroeste 22 Noroeste 0 -- -- 69
2018-03-26 10:00:00 3.5 4 Oeste 14 Oeste 0 -- -- 82
2018-03-26 09:00:00 1.1 3 Noroeste 7 Noroeste 0 -- -- 90
2018-03-26 08:00:00 0.3 0 Calma 5 Norte 0 -- -- 87
2018-03-26 07:00:00 1 3 Nordeste 5 Noroeste 0 -- -- 86
2018-03-26 06:00:00 2.2 0 Calma 9 Norte 0 -- -- 82
2018-03-26 05:00:00 2.9 2 Norte 15 Norte 0 -- -- 80
2018-03-26 04:00:00 3.2 6 Nordeste 14 Norte 0 -- -- 79
2018-03-26 03:00:00 3.5 5 Norte 13 Norte 0 -- -- 78
2018-03-26 02:00:00 4.1 8 Norte 20 Nordeste 0 -- -- 75
2018-03-26 01:00:00 4.2 6 Norte 12 Norte 0 -- -- 74
2018-03-26 00:00:00 5.1 7 Norte 22 Norte 0 -- -- 71
2018-03-25 23:00:00 5.2 11 Norte 31 Norte 0 -- -- 71
2018-03-25 22:00:00 5.5 13 Norte 36 Norte 0 -- -- 70
2018-03-25 21:00:00 6.8 15 Norte 33 Norte 0 -- -- 62
2018-03-25 20:00:00 8.6 16 Noroeste 36 Noroeste 0 -- -- 53
2018-03-25 19:00:00 9.6 16 Norte 33 Norte 0 -- -- 51
2018-03-25 18:00:00 8.7 13 Norte 34 Norte 0 -- -- 53
2018-03-25 17:00:00 9.5 5 Norte 17 Nordeste 0 -- -- 54
2018-03-25 16:00:00 10.4 6 Nordeste 23 Nordeste 0 -- -- 54
2018-03-25 15:00:00 9.5 13 Nordeste 24 Nordeste 0 -- -- 50
2018-03-25 14:00:00 8.5 8 Norte 22 Noroeste 0 -- -- 54
2018-03-25 13:00:00 7.6 9 Noroeste 20 Noroeste 0 -- -- 59
2018-03-25 12:00:00 6 10 Noroeste 25 Noroeste 0 -- -- 66
2018-03-25 11:00:00 4.2 14 Noroeste 23 Noroeste 0 -- -- 76
2018-03-25 10:00:00 3.2 6 Oeste 19 Noroeste 0 -- -- 87
2018-03-25 09:00:00 1.7 9 Noroeste 17 Noroeste 0 -- -- 89
2018-03-25 08:00:00 2 3 Noroeste 6 Noroeste 0 -- -- 78
2018-03-25 07:00:00 2.8 3 Oeste 20 Noroeste 0 -- -- 75
2018-03-25 06:00:00 3.4 7 Noroeste 20 Noroeste 0 -- -- 74
2018-03-25 05:00:00 3.8 9 Noroeste 30 Noroeste 0 -- -- 71
2018-03-25 03:00:00 4.5 14 Noroeste 31 Noroeste 0 -- -- 69
2018-03-25 01:00:00 4.8 15 Noroeste 34 Noroeste 0 -- -- 68
2018-03-25 00:00:00 5 14 Noroeste 33 Noroeste 0 -- -- 67
2018-03-24 23:00:00 5.6 20 Noroeste 44 Noroeste 0 -- -- 65
2018-03-24 22:00:00 6.1 23 Noroeste 54 Noroeste 0 -- -- 65
2018-03-24 21:00:00 6.6 26 Noroeste 45 Noroeste 0 -- -- 62
2018-03-24 20:00:00 6.6 22 Noroeste 56 Noroeste 0 -- -- 64
2018-03-24 19:00:00 7.8 29 Noroeste 51 Noroeste 0 -- -- 57
2018-03-24 18:00:00 7.9 30 Noroeste 59 Noroeste 0 -- -- 57
2018-03-24 17:00:00 8 33 Noroeste 69 Noroeste 0 -- -- 57
2018-03-24 16:00:00 7.8 31 Noroeste 57 Noroeste 0 -- -- 56
2018-03-24 15:00:00 6.5 20 Noroeste 48 Noroeste 0 -- -- 65
2018-03-24 14:00:00 5.9 19 Noroeste 55 Noroeste 0 -- -- 65
2018-03-24 13:00:00 5.2 24 Noroeste 63 Noroeste 0 -- -- 65
2018-03-24 12:00:00 5.2 37 Noroeste 62 Noroeste 0 -- -- 62
2018-03-24 11:00:00 4.5 31 Noroeste 59 Noroeste 0 -- -- 67
2018-03-24 10:00:00 3.2 31 Noroeste 51 Noroeste 0 -- -- 73
2018-03-24 09:00:00 2.4 30 Noroeste 50 Noroeste 0 -- -- 74
2018-03-24 08:00:00 1.2 24 Noroeste 44 Noroeste 0 -- -- 82
2018-03-24 07:00:00 1.3 23 Noroeste 40 Noroeste 0 -- -- 81
2018-03-24 06:00:00 1.5 15 Noroeste 34 Noroeste 0 -- -- 83
2018-03-24 05:00:00 1.5 5 Norte 26 Noroeste 0.2 -- -- 88
2018-03-24 04:00:00 2 11 Noroeste 31 Noroeste 0.4 -- -- 90
2018-03-24 03:00:00 2.8 22 Noroeste 67 Noroeste 3 -- -- 85
2018-03-24 02:00:00 7.3 21 Sudoeste 48 Oeste 0.8 -- -- 95
2018-03-24 01:00:00 7.6 23 Sudoeste 36 Oeste 0.4 -- -- 96
2018-03-24 00:00:00 7.6 17 Sudoeste 33 Sudoeste 1 -- -- 96
2018-03-23 23:00:00 7.5 21 Sudoeste 40 Oeste 0.2 -- -- 96
2018-03-23 22:00:00 7.3 21 Sudoeste 36 Sudoeste 0.2 -- -- 97
2018-03-23 21:00:00 7.2 19 Sudoeste 33 Sudoeste 0 -- -- 96
2018-03-23 20:00:00 7.6 15 Sudoeste 35 Oeste 0.4 -- -- 95
2018-03-23 19:00:00 7.9 10 Oeste 36 Noroeste 0.6 -- -- 95
2018-03-23 18:00:00 7.9 7 Oeste 30 Oeste 0.4 -- -- 93
2018-03-23 17:00:00 8.4 11 Noroeste 32 Oeste 1 -- -- 89
2018-03-23 16:00:00 11.3 12 Oeste 31 Noroeste 0 -- -- 67
2018-03-23 15:00:00 12 12 Noroeste 32 Noroeste 0 -- -- 61
2018-03-23 14:00:00 9.8 10 Noroeste 27 Oeste 0 -- -- 66
2018-03-23 13:00:00 8.8 10 Noroeste 27 Oeste 0 -- -- 61
2018-03-23 12:00:00 9 9 Noroeste 25 Noroeste 0 -- -- 61
2018-03-23 11:00:00 7.1 6 Oeste 19 Noroeste 0 -- -- 61
2018-03-23 10:00:00 4.9 9 Noroeste 17 Oeste 0 -- -- 65
2018-03-23 09:00:00 2.7 5 Noroeste 9 Oeste 0 -- -- 67
2018-03-23 08:00:00 0.5 4 Sudoeste 6 Sudoeste 0 -- -- 76
2018-03-23 07:00:00 -1.6 0 Calma 4 Sur 0 -- -- 82
2018-03-23 06:00:00 -1.7 0 Calma 4 Sur 0 -- -- 79
2018-03-23 05:00:00 -1 0 Calma 4 Sur 0 -- -- 77
2018-03-23 04:00:00 -0.4 2 Sudeste 6 Sudoeste 0 -- -- 76
2018-03-23 03:00:00 -0.2 6 Oeste 16 Oeste 0 -- -- 72
2018-03-23 02:00:00 0 0 Calma 6 Este 0 -- -- 73
2018-03-23 01:00:00 1.5 0 Calma 4 Oeste 0 -- -- 67
2018-03-23 00:00:00 3 0 Calma 7 Oeste 0 -- -- 61